Time;durP1;ratioP1;P1;durP2;ratioP2;P2;SDS_P1;SDS_P2;PMS_P1;PMS_P2;Temp;Humidity;BMP_temperature;BMP_pressure;BME280_temperature;BME280_humidity;BME280_pressure;Samples;Min_cycle;Max_cycle;Signal;HPM_P1;HPM_P2
2022/11/18 00:01:30;;;;;;;24.90;14.82;;;6.90;99.90;;;;;;5093394;28;20109;-80
2022/11/18 00:03:56;;;;;;;21.83;13.82;;;6.90;99.90;;;;;;5093107;28;20040;-80
2022/11/18 00:06:23;;;;;;;25.17;16.08;;;6.90;99.90;;;;;;5094470;28;20472;-80
2022/11/18 00:08:50;;;;;;;25.55;16.02;;;6.90;99.90;;;;;;5096272;28;20502;-80
2022/11/18 00:14:21;;;;;;;24.15;15.68;;;6.90;99.90;;;;;;5097185;28;20507;-80
2022/11/18 00:16:47;;;;;;;25.45;16.75;;;6.90;99.90;;;;;;5096392;28;20043;-80
2022/11/18 00:19:13;;;;;;;29.33;17.20;;;6.90;99.90;;;;;;5097071;28;20484;-80
2022/11/18 00:21:39;;;;;;;26.45;16.55;;;6.90;99.90;;;;;;5096959;28;20051;-80
2022/11/18 00:24:04;;;;;;;26.55;17.08;;;6.90;99.90;;;;;;5096729;28;20060;-80
2022/11/18 00:26:30;;;;;;;27.92;16.92;;;6.90;99.90;;;;;;5096236;28;20040;-81
2022/11/18 00:28:56;;;;;;;25.20;16.15;;;6.90;99.90;;;;;;5096908;28;20051;-80
2022/11/18 00:31:21;;;;;;;27.40;16.50;;;6.90;99.90;;;;;;5096993;28;20044;-80
2022/11/18 00:33:47;;;;;;;27.88;17.30;;;6.90;99.90;;;;;;5096543;28;20040;-80
2022/11/18 00:36:12;;;;;;;27.58;16.88;;;6.90;99.90;;;;;;5096807;28;20044;-80
2022/11/18 00:38:39;;;;;;;29.55;18.25;;;7.00;99.90;;;;;;5097081;28;20110;-80
2022/11/18 00:41:10;;;;;;;30.15;17.88;;;7.00;99.90;;;;;;5096714;28;20097;-80
2022/11/18 00:43:36;;;;;;;26.35;17.13;;;7.00;99.90;;;;;;5096540;28;20048;-80
2022/11/18 00:46:02;;;;;;;28.40;17.50;;;7.00;99.90;;;;;;5096698;28;20032;-80
2022/11/18 00:48:28;;;;;;;27.05;16.30;;;7.00;99.90;;;;;;5097041;28;20403;-80
2022/11/18 00:50:56;;;;;;;29.50;17.67;;;7.20;99.90;;;;;;5096510;28;20047;-80
2022/11/18 00:53:23;;;;;;;35.80;18.65;;;7.00;99.90;;;;;;5096520;28;20048;-80
2022/11/18 00:55:49;;;;;;;27.23;18.17;;;7.40;99.90;;;;;;5096347;28;20048;-80
2022/11/18 00:58:15;;;;;;;27.77;17.75;;;6.90;99.90;;;;;;5096393;28;20052;-80
2022/11/18 01:00:42;;;;;;;32.08;18.35;;;7.00;99.90;;;;;;5096443;28;20044;-80
2022/11/18 01:03:09;;;;;;;34.90;17.92;;;6.90;99.90;;;;;;5096686;28;20426;-80
2022/11/18 01:05:36;;;;;;;33.35;18.00;;;6.90;99.90;;;;;;5096261;28;20072;-80
2022/11/18 01:08:01;;;;;;;;;;;6.90;99.90;;;;;;5096891;28;20083;-80
2022/11/18 01:10:27;;;;;;;33.95;17.63;;;7.80;99.90;;;;;;5096113;28;19977;-80
2022/11/18 01:15:39;;;;;;;33.47;19.48;;;6.80;99.90;;;;;;5095619;28;20052;-80
2022/11/18 01:18:04;;;;;;;31.42;18.00;;;7.00;99.90;;;;;;5095766;28;20055;-80
2022/11/18 01:20:31;;;;;;;28.75;18.35;;;6.90;99.90;;;;;;5095862;28;20475;-80
2022/11/18 01:22:57;;;;;;;30.42;17.60;;;6.90;99.90;;;;;;5095971;28;20446;-80
2022/11/18 01:25:23;;;;;;;30.35;17.80;;;6.90;99.90;;;;;;5095865;28;20101;-80
2022/11/18 01:27:48;;;;;;;29.13;17.75;;;6.90;99.90;;;;;;5095772;28;20456;-80
2022/11/18 01:30:15;;;;;;;34.83;19.73;;;6.50;99.90;;;;;;5095751;28;20071;-80
2022/11/18 01:32:42;;;;;;;32.30;19.52;;;6.90;99.90;;;;;;5095706;28;20048;-80
2022/11/18 01:35:09;;;;;;;30.50;17.05;;;7.20;99.90;;;;;;5095767;28;20101;-80
2022/11/18 01:37:34;;;;;;;33.75;18.63;;;6.90;99.90;;;;;;5095780;28;20046;-80
2022/11/18 01:40:00;;;;;;;29.90;18.48;;;6.40;99.90;;;;;;5095444;28;20504;-80
2022/11/18 01:42:26;;;;;;;32.42;18.60;;;6.90;99.90;;;;;;5096054;28;20044;-80
2022/11/18 01:45:03;;;;;;;32.63;17.45;;;6.60;99.90;;;;;;5096018;28;20371;-80
2022/11/18 01:47:36;;;;;;;;;;;6.90;99.90;;;;;;5096031;28;20058;-80
2022/11/18 01:50:03;;;;;;;30.05;17.77;;;7.00;99.90;;;;;;5094394;28;19920;-80
2022/11/18 01:52:31;;;;;;;29.45;18.67;;;6.90;99.90;;;;;;5095346;28;20079;-80
2022/11/18 01:55:04;;;;;;;29.55;18.60;;;6.90;99.90;;;;;;5095194;28;20093;-80
2022/11/18 01:57:31;;;;;;;30.00;17.73;;;6.90;99.90;;;;;;5095239;28;20044;-80
2022/11/18 02:00:00;;;;;;;29.95;17.48;;;6.90;99.90;;;;;;5095281;28;20407;-80
2022/11/18 02:02:29;;;;;;;30.38;18.13;;;6.90;99.90;;;;;;5095122;28;20044;-80
2022/11/18 02:04:56;;;;;;;28.75;17.92;;;6.90;99.90;;;;;;5095106;28;20093;-80
2022/11/18 02:07:23;;;;;;;30.77;17.80;;;6.90;99.90;;;;;;5095040;28;20495;-80
2022/11/18 02:09:49;;;;;;;31.38;18.25;;;6.60;99.90;;;;;;5111665;28;20048;-80
2022/11/18 02:12:15;;;;;;;32.92;17.50;;;6.90;99.90;;;;;;5095195;28;20036;-80
2022/11/18 02:14:45;;;;;;;26.50;16.17;;;6.90;99.90;;;;;;5094972;28;20032;-80
2022/11/18 02:17:26;;;;;;;36.05;17.77;;;6.90;99.90;;;;;;5094907;28;20052;-80
2022/11/18 02:20:23;;;;;;;29.67;17.77;;;6.90;99.90;;;;;;5094813;28;20399;-80
2022/11/18 02:23:26;;;;;;;29.58;16.55;;;6.90;99.90;;;;;;5094293;28;20630;-80
2022/11/18 02:26:29;;;;;;;29.58;16.80;;;6.90;99.90;;;;;;5094822;28;20048;-80
2022/11/18 02:29:00;;;;;;;26.17;16.63;;;6.90;99.90;;;;;;5093850;28;20048;-80
2022/11/18 02:31:55;;;;;;;29.85;16.95;;;6.90;99.90;;;;;;5094944;28;20082;-80
2022/11/18 02:34:55;;;;;;;27.08;16.67;;;6.60;99.90;;;;;;5079922;28;20093;-80
2022/11/18 02:37:32;;;;;;;25.08;16.40;;;6.90;99.90;;;;;;5094762;28;20097;-80
2022/11/18 02:40:12;;;;;;;29.85;17.38;;;6.90;99.90;;;;;;5093494;28;20051;-80
2022/11/18 02:42:40;;;;;;;27.00;17.20;;;6.90;99.90;;;;;;5093089;28;20036;-80
2022/11/18 02:45:11;;;;;;;26.50;17.67;;;6.90;99.90;;;;;;5094750;28;20093;-80
2022/11/18 02:47:39;;;;;;;28.40;16.55;;;6.90;99.90;;;;;;5093596;28;20139;-80
2022/11/18 02:50:10;;;;;;;29.75;17.77;;;6.90;99.90;;;;;;5094127;28;20044;-80
2022/11/18 02:52:38;;;;;;;26.48;15.95;;;6.90;99.90;;;;;;5094547;28;20044;-80
2022/11/18 02:55:07;;;;;;;26.40;16.55;;;7.00;99.90;;;;;;5094271;28;20053;-80
2022/11/18 02:57:35;;;;;;;28.58;17.23;;;6.90;99.90;;;;;;5094170;28;20090;-80
2022/11/18 03:00:00;;;;;;;28.00;17.55;;;6.90;99.90;;;;;;5094152;28;20040;-80
2022/11/18 03:02:26;;;;;;;30.20;17.42;;;6.90;99.90;;;;;;5094143;28;20044;-80
2022/11/18 03:04:55;;;;;;;26.02;16.92;;;6.40;99.90;;;;;;5094017;28;20040;-80
2022/11/18 03:07:31;;;;;;;30.48;17.15;;;6.90;99.90;;;;;;5093991;28;20044;-80
2022/11/18 03:09:58;;;;;;;29.95;17.23;;;6.70;99.90;;;;;;5092898;28;20055;-80
2022/11/18 03:12:38;;;;;;;31.92;18.90;;;6.90;99.90;;;;;;5094310;28;20051;-80
2022/11/18 03:15:09;;;;;;;32.22;18.23;;;6.90;99.90;;;;;;5094283;28;20400;-80
2022/11/18 03:17:57;;;;;;;25.85;17.10;;;6.90;99.90;;;;;;5093968;28;20050;-80
2022/11/18 03:20:32;;;;;;;35.08;18.52;;;6.90;99.90;;;;;;5109945;28;20055;-80
2022/11/18 03:23:13;;;;;;;26.75;17.13;;;6.90;99.90;;;;;;5093990;28;20047;-80
2022/11/18 03:26:00;;;;;;;26.92;17.05;;;6.90;99.90;;;;;;5093817;28;20090;-80
2022/11/18 03:28:37;;;;;;;28.45;16.83;;;6.90;99.90;;;;;;5093894;28;20052;-80
2022/11/18 03:31:40;;;;;;;34.47;17.90;;;6.90;99.90;;;;;;5093852;28;20094;-81
2022/11/18 03:34:15;;;;;;;30.35;17.65;;;6.90;99.90;;;;;;5093418;28;20484;-81
2022/11/18 03:36:46;;;;;;;25.00;16.73;;;6.90;99.90;;;;;;5093655;28;20372;-81
2022/11/18 03:39:14;;;;;;;27.30;17.25;;;6.40;99.90;;;;;;5093644;28;20381;-81
2022/11/18 03:41:47;;;;;;;27.25;16.67;;;6.90;99.90;;;;;;5096037;28;20073;-81
2022/11/18 03:44:29;;;;;;;29.83;17.83;;;6.90;99.90;;;;;;5098071;28;20051;-81
2022/11/18 03:46:59;;;;;;;26.67;16.92;;;6.90;99.90;;;;;;5097976;28;20055;-81
2022/11/18 03:49:32;;;;;;;21.35;15.15;;;6.80;99.90;;;;;;5096774;28;20052;-80
2022/11/18 03:52:06;;;;;;;27.17;16.80;;;6.80;99.90;;;;;;5097592;28;20136;-81
2022/11/18 03:54:35;;;;;;;28.00;16.23;;;6.90;99.90;;;;;;5097629;28;20044;-81
2022/11/18 03:57:11;;;;;;;28.17;17.50;;;6.90;99.90;;;;;;5097651;28;20092;-81
2022/11/18 03:59:51;;;;;;;31.67;16.98;;;6.80;99.90;;;;;;5097812;28;20126;-81
2022/11/18 04:02:23;;;;;;;24.80;15.95;;;6.80;99.90;;;;;;5097490;28;20048;-80
2022/11/18 04:04:51;;;;;;;27.48;16.10;;;6.80;99.90;;;;;;5097581;28;20118;-81
2022/11/18 04:07:35;;;;;;;28.70;16.77;;;6.40;99.90;;;;;;5097212;28;20488;-79
2022/11/18 04:10:23;;;;;;;26.33;16.27;;;6.90;99.90;;;;;;5097455;28;20048;-79
2022/11/18 04:12:52;;;;;;;;;;;6.80;99.90;;;;;;5097763;28;20101;-79
2022/11/18 04:15:19;;;;;;;28.10;17.02;;;6.90;99.90;;;;;;5097235;28;20084;-79
2022/11/18 04:17:44;;;;;;;25.67;15.40;;;6.80;99.90;;;;;;5097263;28;20048;-79
2022/11/18 04:20:17;;;;;;;28.73;16.42;;;6.80;99.90;;;;;;5097192;28;20456;-80
2022/11/18 04:22:43;;;;;;;27.70;17.02;;;6.80;99.90;;;;;;5097215;28;20430;-80
2022/11/18 04:25:08;;;;;;;27.45;17.02;;;6.80;99.90;;;;;;5096988;28;20112;-80
2022/11/18 04:27:34;;;;;;;25.55;15.93;;;6.80;99.90;;;;;;5096959;28;20484;-80
2022/11/18 04:29:59;;;;;;;31.30;15.80;;;6.80;99.90;;;;;;5097076;28;20126;-80
2022/11/18 04:32:25;;;;;;;27.25;15.75;;;6.80;99.90;;;;;;5096968;28;20062;-80
2022/11/18 04:34:50;;;;;;;26.70;15.18;;;6.80;99.90;;;;;;5097048;28;20114;-80
2022/11/18 04:37:16;;;;;;;26.85;15.98;;;6.80;99.90;;;;;;5096956;28;20128;-80
2022/11/18 04:39:42;;;;;;;24.85;15.20;;;6.80;99.90;;;;;;5096951;28;20377;-80
2022/11/18 04:42:07;;;;;;;26.95;16.65;;;6.80;99.90;;;;;;5096009;28;20066;-80
2022/11/18 04:44:33;;;;;;;24.98;15.30;;;6.80;99.90;;;;;;5097030;28;20044;-80
2022/11/18 04:47:02;;;;;;;28.23;15.38;;;6.80;99.90;;;;;;5096740;28;20044;-80
2022/11/18 04:49:29;;;;;;;28.30;15.57;;;6.80;99.90;;;;;;5095558;28;20447;-80
2022/11/18 04:51:55;;;;;;;25.83;15.55;;;6.80;99.90;;;;;;5096145;28;20056;-80
2022/11/18 04:54:21;;;;;;;28.60;16.20;;;6.70;99.90;;;;;;5096197;28;20089;-80
2022/11/18 04:56:47;;;;;;;31.33;17.33;;;6.70;99.90;;;;;;5096690;28;20040;-80
2022/11/18 04:59:15;;;;;;;30.70;16.65;;;6.70;99.90;;;;;;5096430;28;20055;-80
2022/11/18 05:01:40;;;;;;;30.42;18.10;;;6.70;99.90;;;;;;5096474;28;20048;-80
2022/11/18 05:04:07;;;;;;;24.52;15.13;;;6.70;99.90;;;;;;5096320;28;20089;-80
2022/11/18 05:06:33;;;;;;;27.10;14.68;;;6.70;99.90;;;;;;5096339;28;20055;-80
2022/11/18 05:09:00;;;;;;;27.92;15.20;;;6.70;99.90;;;;;;5096166;28;20052;-80
2022/11/18 05:14:10;;;;;;;23.55;14.77;;;6.60;99.90;;;;;;5096348;28;19927;-80
2022/11/18 05:16:35;;;;;;;29.90;16.23;;;7.10;99.90;;;;;;5095884;28;20471;-80
2022/11/18 05:19:03;;;;;;;29.17;15.38;;;6.60;99.90;;;;;;5096104;28;20047;-80
2022/11/18 05:21:28;;;;;;;30.45;15.88;;;6.60;99.90;;;;;;5095823;28;20059;-80
2022/11/18 05:23:54;;;;;;;28.67;16.55;;;6.60;99.90;;;;;;5095533;28;20048;-80
2022/11/18 05:26:20;;;;;;;30.52;16.30;;;6.60;99.90;;;;;;5096058;28;20048;-80
2022/11/18 05:28:45;;;;;;;31.95;15.15;;;6.60;99.90;;;;;;5095985;28;20484;-80
2022/11/18 05:31:15;;;;;;;31.50;16.70;;;6.90;99.90;;;;;;5096172;28;20051;-80
2022/11/18 05:33:41;;;;;;;32.35;16.52;;;6.60;99.90;;;;;;5095880;28;20134;-80
2022/11/18 05:36:09;;;;;;;28.17;16.55;;;6.60;99.90;;;;;;5077881;28;20079;-80
2022/11/18 05:38:35;;;;;;;31.13;16.80;;;6.70;99.90;;;;;;5095426;28;20488;-80
2022/11/18 05:41:02;;;;;;;28.73;16.17;;;6.60;99.90;;;;;;5095523;28;20476;-80
2022/11/18 05:43:28;;;;;;;29.20;16.90;;;6.60;99.90;;;;;;5095753;28;20083;-80
2022/11/18 05:45:54;;;;;;;33.80;17.48;;;6.60;99.90;;;;;;5095498;28;20040;-80
2022/11/18 05:48:20;;;;;;;33.13;16.25;;;6.60;99.90;;;;;;5094417;28;20036;-80
2022/11/18 05:50:48;;;;;;;33.00;17.25;;;6.60;99.90;;;;;;5095584;28;20086;-79
2022/11/18 05:53:15;;;;;;;28.45;16.25;;;6.60;99.90;;;;;;5095193;28;20051;-80
2022/11/18 05:55:49;;;;;;;;;;;6.70;99.90;;;;;;5095764;28;20085;-80
2022/11/18 05:58:15;;;;;;;29.58;16.25;;;6.60;99.90;;;;;;5095348;28;19920;-80
2022/11/18 06:00:41;;;;;;;31.95;16.65;;;6.20;99.90;;;;;;5095267;28;20545;-81
2022/11/18 06:03:17;;;;;;;28.70;16.43;;;5.40;99.90;;;;;;5094691;28;20048;-79
2022/11/18 06:05:44;;;;;;;28.33;15.65;;;6.60;99.90;;;;;;5094578;28;20301;-79
2022/11/18 06:08:10;;;;;;;26.03;15.00;;;6.60;99.90;;;;;;5095324;28;20122;-79
2022/11/18 06:10:39;;;;;;;29.98;14.52;;;6.60;99.90;;;;;;5095123;28;20048;-79
2022/11/18 06:13:08;;;;;;;27.25;15.52;;;6.50;99.90;;;;;;5095017;28;20077;-79
2022/11/18 06:15:39;;;;;;;30.05;15.88;;;6.50;99.90;;;;;;5094963;28;20047;-79
2022/11/18 06:18:10;;;;;;;30.95;15.55;;;6.50;99.90;;;;;;5094955;28;20055;-80
2022/11/18 06:20:38;;;;;;;27.98;15.82;;;6.50;99.90;;;;;;5095327;28;20392;-80
2022/11/18 06:23:04;;;;;;;31.58;15.65;;;6.50;99.90;;;;;;5094560;28;20134;-80
2022/11/18 06:25:30;;;;;;;31.70;15.60;;;6.50;99.90;;;;;;5094761;28;20131;-80
2022/11/18 06:28:00;;;;;;;22.60;14.55;;;6.50;99.90;;;;;;5094646;28;20580;-79
2022/11/18 06:30:25;;;;;;;29.23;15.85;;;6.30;99.90;;;;;;5094659;28;20040;-80
2022/11/18 06:32:51;;;;;;;26.50;15.35;;;6.50;99.90;;;;;;5094606;28;20050;-79
2022/11/18 06:35:17;;;;;;;28.23;14.68;;;6.50;99.90;;;;;;5094788;28;20047;-79
2022/11/18 06:37:42;;;;;;;29.50;14.80;;;6.50;99.90;;;;;;5094523;28;20487;-79
2022/11/18 06:40:08;;;;;;;25.27;14.68;;;6.20;99.90;;;;;;5094578;28;20145;-79
2022/11/18 06:45:18;;;;;;;26.45;15.10;;;6.50;99.90;;;;;;5094496;28;20088;-79
2022/11/18 06:47:43;;;;;;;27.42;15.30;;;6.50;99.90;;;;;;5094388;28;20076;-79
2022/11/18 06:50:09;;;;;;;24.70;14.25;;;6.50;99.90;;;;;;5094048;28;20044;-79
2022/11/18 06:52:35;;;;;;;32.38;14.05;;;6.50;99.90;;;;;;5094282;28;20087;-79
2022/11/18 06:55:01;;;;;;;26.33;14.10;;;6.00;99.90;;;;;;5094287;28;20054;-79
2022/11/18 06:57:26;;;;;;;30.75;14.18;;;6.50;99.90;;;;;;5094142;28;20047;-80
2022/11/18 06:59:52;;;;;;;26.00;13.93;;;6.50;99.90;;;;;;5094096;28;20101;-80
2022/11/18 07:02:17;;;;;;;25.65;12.77;;;6.50;99.90;;;;;;5094405;28;20044;-79
2022/11/18 07:04:44;;;;;;;23.27;12.35;;;6.40;99.90;;;;;;5093955;28;20040;-80
2022/11/18 07:07:10;;;;;;;19.63;11.93;;;6.40;99.90;;;;;;5094330;28;20047;-79
2022/11/18 07:09:36;;;;;;;20.92;11.75;;;6.40;99.90;;;;;;5094104;28;20044;-79
2022/11/18 07:12:03;;;;;;;23.93;11.50;;;6.50;99.90;;;;;;5093987;28;20048;-80
2022/11/18 07:14:29;;;;;;;;;;;6.50;99.90;;;;;;5094227;28;20046;-79
2022/11/18 07:16:54;;;;;;;21.42;11.48;;;6.40;99.90;;;;;;5093778;28;19920;-79
2022/11/18 07:19:20;;;;;;;18.55;11.25;;;6.40;99.90;;;;;;5093125;28;20170;-75
2022/11/18 07:21:46;;;;;;;21.15;11.88;;;6.40;99.90;;;;;;5093855;28;20044;-78
2022/11/18 07:24:13;;;;;;;21.52;11.52;;;6.70;99.90;;;;;;5093421;28;20059;-78
2022/11/18 07:26:41;;;;;;;17.98;11.35;;;6.40;99.90;;;;;;5094282;28;20078;-79
2022/11/18 07:29:06;;;;;;;22.80;12.32;;;6.50;99.90;;;;;;5094497;28;20468;-76
2022/11/18 07:31:36;;;;;;;25.38;12.63;;;6.40;99.90;;;;;;5094609;28;20131;-81
2022/11/18 07:34:02;;;;;;;23.02;12.68;;;6.00;99.90;;;;;;5094258;28;20048;-80
2022/11/18 07:36:28;;;;;;;24.83;13.43;;;6.40;99.90;;;;;;5094253;28;20046;-81
2022/11/18 07:38:57;;;;;;;28.27;12.55;;;6.40;99.90;;;;;;5076132;28;20463;-81
2022/11/18 07:41:25;;;;;;;20.98;11.55;;;6.40;99.90;;;;;;5092631;28;20043;-80
2022/11/18 07:43:52;;;;;;;23.38;12.38;;;6.40;99.90;;;;;;5093398;28;20559;-81
2022/11/18 07:46:19;;;;;;;21.17;12.68;;;5.90;99.90;;;;;;5093383;28;20054;-82
2022/11/18 07:48:47;;;;;;;25.35;13.13;;;6.40;99.90;;;;;;5092637;28;20052;-79
2022/11/18 07:51:14;;;;;;;27.80;13.38;;;6.40;99.90;;;;;;5093937;28;20044;-79
2022/11/18 07:53:39;;;;;;;23.00;12.43;;;6.40;99.90;;;;;;5093705;28;20400;-77
2022/11/18 07:56:07;;;;;;;18.75;11.18;;;6.40;99.90;;;;;;5093440;28;20043;-79
2022/11/18 07:58:33;;;;;;;20.45;11.05;;;6.40;99.90;;;;;;5092224;28;20424;-72
2022/11/18 08:01:07;;;;;;;18.98;10.50;;;6.30;99.90;;;;;;5092491;28;20055;-78
2022/11/18 08:03:32;;;;;;;22.38;11.27;;;6.80;99.90;;;;;;5093551;28;20071;-80
2022/11/18 08:05:59;;;;;;;19.27;10.90;;;6.40;99.90;;;;;;5093390;28;20083;-82
2022/11/18 08:08:24;;;;;;;21.27;11.25;;;6.30;99.90;;;;;;5093381;28;20082;-79
2022/11/18 08:10:50;;;;;;;23.85;10.65;;;6.30;99.90;;;;;;5092143;28;20140;-79
2022/11/18 08:13:15;;;;;;;21.17;10.45;;;6.40;99.90;;;;;;5093291;28;20040;-80
2022/11/18 08:15:42;;;;;;;23.45;11.05;;;6.40;99.90;;;;;;5093143;28;20040;-82
2022/11/18 08:18:08;;;;;;;20.35;10.25;;;6.30;99.90;;;;;;5093295;28;20601;-81
2022/11/18 08:20:34;;;;;;;18.00;10.50;;;6.30;99.90;;;;;;5092165;28;20123;-78
2022/11/18 08:23:00;;;;;;;18.95;10.23;;;6.30;99.90;;;;;;5093364;28;20086;-80
2022/11/18 08:25:26;;;;;;;15.73;9.05;;;6.30;99.90;;;;;;5093203;28;20044;-79
2022/11/18 08:27:52;;;;;;;17.25;10.25;;;6.30;99.90;;;;;;5095260;28;20036;-79
2022/11/18 08:30:17;;;;;;;19.02;10.98;;;6.20;99.90;;;;;;5097225;28;20064;-81
2022/11/18 08:32:43;;;;;;;16.38;10.32;;;6.30;99.90;;;;;;5096739;28;20047;-81
2022/11/18 08:35:09;;;;;;;18.08;10.70;;;5.90;99.90;;;;;;5097001;28;20543;-80
2022/11/18 08:37:35;;;;;;;22.65;11.23;;;6.30;99.90;;;;;;5097095;28;20500;-79
2022/11/18 08:40:00;;;;;;;19.42;11.05;;;6.30;99.90;;;;;;5095636;28;20043;-85
2022/11/18 08:42:26;;;;;;;20.80;11.32;;;6.20;99.90;;;;;;5094384;28;20066;-79
2022/11/18 08:44:51;;;;;;;20.08;10.93;;;6.30;99.90;;;;;;5095888;28;20515;-79
2022/11/18 08:47:17;;;;;;;16.20;10.45;;;6.30;99.90;;;;;;5096044;28;20040;-79
2022/11/18 08:49:43;;;;;;;18.13;10.77;;;6.30;99.90;;;;;;5096661;28;20040;-79
2022/11/18 08:52:09;;;;;;;19.27;11.30;;;6.30;99.90;;;;;;5095338;28;20056;-79
2022/11/18 08:54:34;;;;;;;20.98;11.00;;;6.30;99.90;;;;;;5096504;28;20040;-79
2022/11/18 08:57:00;;;;;;;18.05;9.93;;;6.30;99.90;;;;;;5096351;28;20094;-79
2022/11/18 08:59:26;;;;;;;17.40;10.07;;;6.40;99.90;;;;;;5096454;28;20087;-79
2022/11/18 09:01:51;;;;;;;19.30;11.40;;;6.40;99.90;;;;;;5096686;28;20126;-80
2022/11/18 09:04:17;;;;;;;16.80;10.40;;;6.40;99.90;;;;;;5096528;28;20106;-78
2022/11/18 09:06:43;;;;;;;16.75;9.75;;;6.40;99.90;;;;;;5096603;28;20040;-79
2022/11/18 09:09:09;;;;;;;18.33;10.55;;;6.40;99.90;;;;;;5096176;28;20062;-79
2022/11/18 09:11:37;;;;;;;16.23;9.32;;;6.50;99.90;;;;;;5096294;28;20046;-79
2022/11/18 09:14:03;;;;;;;17.60;10.07;;;6.50;99.90;;;;;;5095554;28;20501;-79
2022/11/18 09:16:30;;;;;;;16.77;9.98;;;6.50;99.90;;;;;;5096381;28;20081;-79
2022/11/18 09:18:56;;;;;;;13.50;9.10;;;6.50;99.90;;;;;;5094844;28;20119;-79
2022/11/18 09:21:22;;;;;;;17.50;9.73;;;6.40;99.90;;;;;;5096251;28;20441;-79
2022/11/18 09:23:48;;;;;;;17.65;8.68;;;6.40;99.90;;;;;;5096081;28;20056;-79
2022/11/18 09:26:16;;;;;;;16.25;9.80;;;6.50;99.90;;;;;;5095839;28;20100;-79
2022/11/18 09:28:42;;;;;;;16.92;9.52;;;6.50;99.90;;;;;;5095972;28;20044;-79
2022/11/18 09:31:11;;;;;;;15.30;9.10;;;6.50;99.90;;;;;;5095931;28;20387;-79
2022/11/18 09:33:37;;;;;;;17.10;10.20;;;6.50;99.90;;;;;;5095863;28;20435;-79
2022/11/18 09:36:21;;;;;;;14.15;9.13;;;6.40;99.90;;;;;;5077787;28;20399;-79
2022/11/18 09:38:47;;;;;;;16.65;10.10;;;6.50;99.90;;;;;;5095466;28;20040;-79
2022/11/18 09:41:38;;;;;;;12.00;8.17;;;6.40;99.90;;;;;;5095802;28;20044;-78
2022/11/18 09:44:16;;;;;;;15.23;8.65;;;6.40;99.90;;;;;;5095605;28;20046;-79
2022/11/18 09:47:10;;;;;;;18.55;9.57;;;6.40;99.90;;;;;;5095060;28;20086;-78
2022/11/18 09:49:39;;;;;;;13.20;8.50;;;6.40;99.90;;;;;;5095287;28;20396;-76
2022/11/18 09:52:15;;;;;;;14.48;9.20;;;6.40;99.90;;;;;;5094412;28;20063;-78
2022/11/18 09:54:41;;;;;;;15.73;9.50;;;6.50;99.90;;;;;;5093725;28;20044;-78
2022/11/18 09:57:21;;;;;;;15.75;9.88;;;6.40;99.90;;;;;;5094767;28;20036;-78
2022/11/18 09:59:47;;;;;;;15.38;8.68;;;6.30;99.90;;;;;;5094154;28;20040;-78
2022/11/18 10:02:12;;;;;;;16.30;10.15;;;6.40;99.90;;;;;;5094241;28;20040;-78
2022/11/18 10:04:38;;;;;;;19.10;9.82;;;6.80;99.90;;;;;;5093223;28;20132;-77
2022/11/18 10:07:25;;;;;;;15.93;10.32;;;6.40;99.90;;;;;;5092274;28;20109;-77
2022/11/18 10:09:54;;;;;;;19.48;10.48;;;6.30;99.90;;;;;;5094681;28;20100;-78
2022/11/18 10:12:31;;;;;;;17.58;10.20;;;6.30;99.90;;;;;;5093117;28;20131;-78
2022/11/18 10:15:15;;;;;;;17.27;10.80;;;6.40;99.90;;;;;;5093796;28;20380;-78
2022/11/18 10:17:53;;;;;;;15.95;11.07;;;6.40;99.90;;;;;;5094511;28;20062;-80
2022/11/18 10:20:36;;;;;;;17.30;10.63;;;6.40;99.90;;;;;;5092949;28;20434;-82
2022/11/18 10:23:15;;;;;;;17.63;10.90;;;6.40;99.90;;;;;;5092639;28;20127;-84
2022/11/18 10:25:41;;;;;;;17.17;10.68;;;6.40;99.90;;;;;;5092741;28;20040;-83
2022/11/18 10:28:21;;;;;;;17.88;10.75;;;6.40;99.90;;;;;;5092732;28;20492;-83
2022/11/18 10:30:47;;;;;;;18.23;9.98;;;6.40;99.90;;;;;;5093336;28;20040;-86
2022/11/18 10:33:21;;;;;;;17.08;10.25;;;6.40;99.90;;;;;;5092560;28;20067;-79
2022/11/18 10:35:48;;;;;;;17.70;10.50;;;6.30;99.90;;;;;;5092901;28;20117;-81
2022/11/18 10:38:13;;;;;;;15.07;9.93;;;6.30;99.90;;;;;;5093776;28;20044;-85
2022/11/18 10:40:51;;;;;;;17.83;10.32;;;6.30;99.90;;;;;;5092995;28;20579;-78
2022/11/18 10:43:47;;;;;;;18.77;10.63;;;6.30;99.90;;;;;;5094197;28;20492;-78
2022/11/18 10:46:40;;;;;;;15.48;10.13;;;6.30;99.90;;;;;;5094389;28;20085;-79
2022/11/18 10:49:08;;;;;;;22.23;10.73;;;6.30;99.90;;;;;;5094794;28;20427;-79
2022/11/18 10:51:36;;;;;;;20.60;10.95;;;6.20;99.90;;;;;;5093516;28;20048;-80
2022/11/18 10:54:22;;;;;;;17.08;10.40;;;6.20;99.90;;;;;;5094797;28;20044;-79
2022/11/18 10:57:14;;;;;;;16.80;10.07;;;6.20;99.90;;;;;;5094026;28;20044;-78
2022/11/18 10:59:45;;;;;;;19.65;10.25;;;6.30;99.90;;;;;;5093947;28;20059;-79
2022/11/18 11:02:30;;;;;;;16.05;10.05;;;6.30;99.90;;;;;;5094821;28;20086;-80
2022/11/18 11:04:58;;;;;;;15.93;9.90;;;6.20;99.90;;;;;;5094306;28;20044;-80
2022/11/18 11:07:24;;;;;;;14.48;9.13;;;6.20;99.90;;;;;;5094404;28;20127;-80
2022/11/18 11:10:21;;;;;;;14.50;8.73;;;6.20;99.90;;;;;;5093493;28;20147;-78
2022/11/18 11:12:54;;;;;;;16.15;10.00;;;6.20;99.90;;;;;;5091680;28;20040;-80
2022/11/18 11:15:44;;;;;;;15.32;8.45;;;5.50;99.90;;;;;;5091129;28;20392;-80
2022/11/18 11:18:41;;;;;;;16.45;10.43;;;6.20;99.90;;;;;;5075290;28;20036;-79
2022/11/18 11:21:16;;;;;;;14.00;9.35;;;5.90;99.90;;;;;;5093467;28;20040;-80
2022/11/18 11:23:43;;;;;;;14.52;8.68;;;6.10;99.90;;;;;;5093409;28;20052;-79
2022/11/18 11:26:34;;;;;;;15.00;8.93;;;6.00;99.90;;;;;;5093859;28;20044;-79
2022/11/18 11:29:12;;;;;;;14.63;8.70;;;6.00;99.90;;;;;;5093893;28;20569;-79
2022/11/18 11:31:57;;;;;;;16.95;9.52;;;6.00;99.90;;;;;;5092881;28;20040;-78
2022/11/18 11:34:53;;;;;;;14.82;8.32;;;5.90;99.90;;;;;;5092981;28;20469;-79
2022/11/18 11:37:32;;;;;;;12.85;8.65;;;5.80;99.90;;;;;;5093002;28;20501;-80
2022/11/18 11:40:23;;;;;;;15.75;8.75;;;5.80;99.90;;;;;;5092945;28;20047;-78
2022/11/18 11:43:00;;;;;;;11.57;7.78;;;5.80;99.90;;;;;;5094540;28;20094;-77
2022/11/18 11:45:30;;;;;;;;;;;5.80;99.90;;;;;;5094019;28;20047;-77
2022/11/18 11:48:09;;;;;;;15.15;9.45;;;5.80;99.90;;;;;;5093608;28;19974;-81
2022/11/18 11:50:59;;;;;;;15.75;8.98;;;5.80;99.90;;;;;;5093601;28;20051;-79
2022/11/18 11:53:48;;;;;;;16.05;9.55;;;5.80;99.90;;;;;;5093691;28;20056;-79
2022/11/18 11:56:22;;;;;;;21.13;10.52;;;5.80;99.90;;;;;;5052011;28;20077;-78
2022/11/18 11:59:10;;;;;;;18.30;9.82;;;5.70;99.90;;;;;;5093452;28;20048;-77
2022/11/18 12:01:41;;;;;;;21.10;10.23;;;5.50;99.90;;;;;;5095381;28;20047;-80
2022/11/18 12:04:25;;;;;;;17.92;10.75;;;5.60;99.90;;;;;;5097496;28;20048;-79
2022/11/18 12:06:53;;;;;;;19.42;11.43;;;5.40;99.90;;;;;;5097580;28;20043;-80
2022/11/18 12:09:56;;;;;;;21.13;11.70;;;5.10;99.90;;;;;;5097564;28;20044;-81
2022/11/18 12:12:38;;;;;;;21.50;11.57;;;5.60;99.90;;;;;;5097287;28;20044;-74
2022/11/18 12:15:18;;;;;;;23.63;12.05;;;5.50;99.90;;;;;;5097320;28;20044;-76
2022/11/18 12:17:52;;;;;;;20.08;11.73;;;5.50;99.90;;;;;;5097270;28;20369;-77
2022/11/18 12:20:36;;;;;;;21.73;11.38;;;6.10;99.90;;;;;;5097153;28;20238;-75
2022/11/18 12:23:20;;;;;;;22.95;11.90;;;5.60;99.90;;;;;;5097296;28;20047;-76
2022/11/18 12:25:48;;;;;;;18.77;11.32;;;5.60;99.90;;;;;;5096881;28;20036;-78
2022/11/18 12:28:24;;;;;;;19.73;10.68;;;5.60;99.90;;;;;;5096849;28;20040;-74
2022/11/18 12:30:50;;;;;;;22.50;12.60;;;5.60;99.90;;;;;;5096984;28;20051;-78
2022/11/18 12:33:17;;;;;;;20.55;10.70;;;5.20;99.90;;;;;;5096857;28;20040;-76
2022/11/18 12:35:48;;;;;;;20.73;11.73;;;5.60;99.90;;;;;;5096872;28;20123;-77
2022/11/18 12:38:31;;;;;;;19.20;10.73;;;5.60;99.90;;;;;;5097045;28;20392;-76
2022/11/18 12:40:56;;;;;;;22.08;11.52;;;5.70;99.90;;;;;;5096708;28;20044;-76
2022/11/18 12:46:29;;;;;;;20.95;11.20;;;5.60;99.90;;;;;;5096774;28;20048;-76
2022/11/18 12:48:54;;;;;;;20.90;11.65;;;5.60;99.90;;;;;;5096472;28;20048;-77
2022/11/18 12:51:20;;;;;;;19.15;11.80;;;5.60;99.90;;;;;;5095405;28;20230;-77
2022/11/18 12:53:50;;;;;;;21.55;12.88;;;5.60;99.90;;;;;;5096555;28;20131;-76
2022/11/18 12:56:16;;;;;;;22.63;12.13;;;5.60;99.90;;;;;;5096527;28;20051;-75
2022/11/18 12:58:53;;;;;;;22.75;11.75;;;5.50;99.90;;;;;;5096364;28;20040;-76
2022/11/18 13:01:30;;;;;;;19.45;11.05;;;5.50;99.90;;;;;;5096476;28;20048;-76
2022/11/18 13:04:15;;;;;;;16.83;9.45;;;5.50;99.90;;;;;;5094644;28;20040;-76
2022/11/18 13:06:42;;;;;;;18.55;10.68;;;5.40;99.90;;;;;;5096245;28;20040;-75
2022/11/18 13:09:23;;;;;;;22.98;11.20;;;5.50;99.90;;;;;;5095949;28;20036;-75
2022/11/18 13:12:07;;;;;;;15.63;9.70;;;5.50;99.90;;;;;;5095838;28;20052;-75
2022/11/18 13:20:19;;;;;;;15.50;8.85;;;5.50;99.90;;;;;;5095864;28;20085;-76